sensor_id;sensor_type;location;lat;lon;timestamp;P1;durP1;ratioP1;P2;durP2;ratioP2
14714;SDS011;7448;52.698;5.186;2022-11-15T00:01:22;58.67;;;26.23;;
14714;SDS011;7448;52.698;5.186;2022-11-15T00:03:50;57.15;;;25.88;;
14714;SDS011;7448;52.698;5.186;2022-11-15T00:06:17;55.22;;;25.10;;
14714;SDS011;7448;52.698;5.186;2022-11-15T00:08:43;57.75;;;24.65;;
14714;SDS011;7448;52.698;5.186;2022-11-15T00:11:11;57.45;;;25.15;;
14714;SDS011;7448;52.698;5.186;2022-11-15T00:13:38;54.15;;;24.88;;
14714;SDS011;7448;52.698;5.186;2022-11-15T00:16:05;51.00;;;23.17;;
14714;SDS011;7448;52.698;5.186;2022-11-15T00:18:34;56.88;;;23.00;;
14714;SDS011;7448;52.698;5.186;2022-11-15T00:21:19;50.15;;;22.00;;
14714;SDS011;7448;52.698;5.186;2022-11-15T00:23:45;47.70;;;21.65;;
14714;SDS011;7448;52.698;5.186;2022-11-15T00:26:12;50.60;;;22.75;;
14714;SDS011;7448;52.698;5.186;2022-11-15T00:28:39;49.75;;;21.98;;
14714;SDS011;7448;52.698;5.186;2022-11-15T00:31:07;55.20;;;22.90;;
14714;SDS011;7448;52.698;5.186;2022-11-15T00:33:36;50.50;;;22.95;;
14714;SDS011;7448;52.698;5.186;2022-11-15T00:36:06;49.50;;;22.05;;
14714;SDS011;7448;52.698;5.186;2022-11-15T00:38:35;49.55;;;21.10;;
14714;SDS011;7448;52.698;5.186;2022-11-15T00:41:02;46.58;;;19.38;;
14714;SDS011;7448;52.698;5.186;2022-11-15T00:43:29;45.28;;;19.60;;
14714;SDS011;7448;52.698;5.186;2022-11-15T00:45:56;48.22;;;20.33;;
14714;SDS011;7448;52.698;5.186;2022-11-15T00:48:22;51.25;;;22.02;;
14714;SDS011;7448;52.698;5.186;2022-11-15T00:50:49;58.50;;;23.52;;
14714;SDS011;7448;52.698;5.186;2022-11-15T00:53:16;55.88;;;22.88;;
14714;SDS011;7448;52.698;5.186;2022-11-15T00:55:42;49.97;;;22.27;;
14714;SDS011;7448;52.698;5.186;2022-11-15T00:58:09;56.10;;;22.65;;
14714;SDS011;7448;52.698;5.186;2022-11-15T01:00:35;59.28;;;23.27;;
14714;SDS011;7448;52.698;5.186;2022-11-15T01:03:02;59.25;;;23.38;;
14714;SDS011;7448;52.698;5.186;2022-11-15T01:05:28;60.50;;;22.80;;
14714;SDS011;7448;52.698;5.186;2022-11-15T01:07:55;55.70;;;23.05;;
14714;SDS011;7448;52.698;5.186;2022-11-15T01:10:22;61.72;;;24.63;;
14714;SDS011;7448;52.698;5.186;2022-11-15T01:12:49;65.75;;;24.05;;
14714;SDS011;7448;52.698;5.186;2022-11-15T01:15:15;66.32;;;25.52;;
14714;SDS011;7448;52.698;5.186;2022-11-15T01:17:42;64.03;;;24.25;;
14714;SDS011;7448;52.698;5.186;2022-11-15T01:20:08;70.15;;;25.45;;
14714;SDS011;7448;52.698;5.186;2022-11-15T01:22:35;65.47;;;23.83;;
14714;SDS011;7448;52.698;5.186;2022-11-15T01:25:01;67.35;;;25.00;;
14714;SDS011;7448;52.698;5.186;2022-11-15T01:27:28;69.22;;;26.50;;
14714;SDS011;7448;52.698;5.186;2022-11-15T01:29:54;66.90;;;24.13;;
14714;SDS011;7448;52.698;5.186;2022-11-15T01:32:21;82.88;;;25.88;;
14714;SDS011;7448;52.698;5.186;2022-11-15T01:34:47;72.57;;;25.90;;
14714;SDS011;7448;52.698;5.186;2022-11-15T01:37:14;67.90;;;27.77;;
14714;SDS011;7448;52.698;5.186;2022-11-15T01:39:40;81.03;;;28.70;;
14714;SDS011;7448;52.698;5.186;2022-11-15T01:42:11;75.72;;;26.98;;
14714;SDS011;7448;52.698;5.186;2022-11-15T01:44:39;89.43;;;28.10;;
14714;SDS011;7448;52.698;5.186;2022-11-15T01:47:12;80.78;;;27.95;;
14714;SDS011;7448;52.698;5.186;2022-11-15T01:49:39;79.00;;;27.17;;
14714;SDS011;7448;52.698;5.186;2022-11-15T01:52:11;83.93;;;26.45;;
14714;SDS011;7448;52.698;5.186;2022-11-15T01:54:38;76.18;;;26.65;;
14714;SDS011;7448;52.698;5.186;2022-11-15T01:57:06;63.72;;;24.88;;
14714;SDS011;7448;52.698;5.186;2022-11-15T01:59:34;73.60;;;26.73;;
14714;SDS011;7448;52.698;5.186;2022-11-15T02:02:01;73.10;;;26.77;;
14714;SDS011;7448;52.698;5.186;2022-11-15T02:04:28;80.95;;;27.67;;
14714;SDS011;7448;52.698;5.186;2022-11-15T02:06:55;69.68;;;24.25;;
14714;SDS011;7448;52.698;5.186;2022-11-15T02:09:21;77.80;;;25.90;;
14714;SDS011;7448;52.698;5.186;2022-11-15T02:11:48;74.78;;;26.15;;
14714;SDS011;7448;52.698;5.186;2022-11-15T02:14:15;80.68;;;26.90;;
14714;SDS011;7448;52.698;5.186;2022-11-15T02:27:04;76.38;;;24.98;;
14714;SDS011;7448;52.698;5.186;2022-11-15T02:29:57;71.63;;;23.60;;
14714;SDS011;7448;52.698;5.186;2022-11-15T02:32:30;81.60;;;26.52;;
14714;SDS011;7448;52.698;5.186;2022-11-15T02:37:51;73.90;;;24.45;;
14714;SDS011;7448;52.698;5.186;2022-11-15T02:40:28;84.82;;;26.50;;
14714;SDS011;7448;52.698;5.186;2022-11-15T02:42:57;79.53;;;27.02;;
14714;SDS011;7448;52.698;5.186;2022-11-15T02:45:44;75.47;;;24.13;;
14714;SDS011;7448;52.698;5.186;2022-11-15T02:48:12;75.88;;;25.10;;
14714;SDS011;7448;52.698;5.186;2022-11-15T02:50:39;70.40;;;24.70;;
14714;SDS011;7448;52.698;5.186;2022-11-15T02:53:07;78.47;;;25.48;;
14714;SDS011;7448;52.698;5.186;2022-11-15T02:55:34;79.22;;;25.02;;
14714;SDS011;7448;52.698;5.186;2022-11-15T02:58:06;81.13;;;25.80;;
14714;SDS011;7448;52.698;5.186;2022-11-15T03:00:34;82.43;;;25.35;;
14714;SDS011;7448;52.698;5.186;2022-11-15T03:03:24;79.68;;;24.05;;
14714;SDS011;7448;52.698;5.186;2022-11-15T03:08:46;83.13;;;26.67;;
14714;SDS011;7448;52.698;5.186;2022-11-15T03:11:20;90.72;;;25.98;;
14714;SDS011;7448;52.698;5.186;2022-11-15T03:13:56;87.22;;;26.52;;
14714;SDS011;7448;52.698;5.186;2022-11-15T03:16:33;83.75;;;24.55;;
14714;SDS011;7448;52.698;5.186;2022-11-15T03:21:36;80.30;;;26.60;;
14714;SDS011;7448;52.698;5.186;2022-11-15T03:24:03;93.22;;;29.05;;
14714;SDS011;7448;52.698;5.186;2022-11-15T03:26:31;91.90;;;28.00;;
14714;SDS011;7448;52.698;5.186;2022-11-15T03:29:03;87.05;;;28.20;;
14714;SDS011;7448;52.698;5.186;2022-11-15T03:31:33;93.22;;;28.83;;
14714;SDS011;7448;52.698;5.186;2022-11-15T03:34:28;95.65;;;29.92;;
14714;SDS011;7448;52.698;5.186;2022-11-15T03:36:55;95.95;;;29.73;;
14714;SDS011;7448;52.698;5.186;2022-11-15T03:39:22;99.95;;;30.50;;
14714;SDS011;7448;52.698;5.186;2022-11-15T03:45:10;117.15;;;32.72;;
14714;SDS011;7448;52.698;5.186;2022-11-15T03:47:13;124.40;;;34.58;;
14714;SDS011;7448;52.698;5.186;2022-11-15T03:49:42;110.45;;;32.40;;
14714;SDS011;7448;52.698;5.186;2022-11-15T03:52:10;117.72;;;33.80;;
14714;SDS011;7448;52.698;5.186;2022-11-15T03:54:38;129.15;;;34.67;;
14714;SDS011;7448;52.698;5.186;2022-11-15T03:57:13;120.18;;;34.03;;
14714;SDS011;7448;52.698;5.186;2022-11-15T03:59:39;107.15;;;34.53;;
14714;SDS011;7448;52.698;5.186;2022-11-15T04:02:06;107.15;;;33.80;;
14714;SDS011;7448;52.698;5.186;2022-11-15T04:04:32;112.43;;;34.22;;
14714;SDS011;7448;52.698;5.186;2022-11-15T04:06:59;115.13;;;33.75;;
14714;SDS011;7448;52.698;5.186;2022-11-15T04:09:25;136.82;;;34.92;;
14714;SDS011;7448;52.698;5.186;2022-11-15T04:11:51;120.75;;;35.53;;
14714;SDS011;7448;52.698;5.186;2022-11-15T04:14:18;130.10;;;36.00;;
14714;SDS011;7448;52.698;5.186;2022-11-15T04:16:44;124.15;;;35.20;;
14714;SDS011;7448;52.698;5.186;2022-11-15T04:19:11;118.60;;;35.45;;
14714;SDS011;7448;52.698;5.186;2022-11-15T04:21:56;126.28;;;35.83;;
14714;SDS011;7448;52.698;5.186;2022-11-15T04:24:41;101.88;;;33.10;;
14714;SDS011;7448;52.698;5.186;2022-11-15T04:27:07;128.80;;;33.50;;
14714;SDS011;7448;52.698;5.186;2022-11-15T04:29:34;110.38;;;33.85;;
14714;SDS011;7448;52.698;5.186;2022-11-15T04:32:05;121.63;;;33.90;;
14714;SDS011;7448;52.698;5.186;2022-11-15T04:34:31;127.10;;;34.10;;
14714;SDS011;7448;52.698;5.186;2022-11-15T04:36:58;108.97;;;34.65;;
14714;SDS011;7448;52.698;5.186;2022-11-15T04:39:37;116.65;;;34.53;;
14714;SDS011;7448;52.698;5.186;2022-11-15T04:42:03;113.97;;;33.97;;
14714;SDS011;7448;52.698;5.186;2022-11-15T04:44:30;117.28;;;34.78;;
14714;SDS011;7448;52.698;5.186;2022-11-15T04:46:56;137.85;;;37.17;;
14714;SDS011;7448;52.698;5.186;2022-11-15T04:49:23;129.00;;;36.10;;
14714;SDS011;7448;52.698;5.186;2022-11-15T04:51:49;128.68;;;36.45;;
14714;SDS011;7448;52.698;5.186;2022-11-15T04:54:15;121.95;;;35.95;;
14714;SDS011;7448;52.698;5.186;2022-11-15T04:56:42;119.93;;;36.47;;
14714;SDS011;7448;52.698;5.186;2022-11-15T04:59:08;126.63;;;38.03;;
14714;SDS011;7448;52.698;5.186;2022-11-15T05:01:35;139.88;;;36.33;;
14714;SDS011;7448;52.698;5.186;2022-11-15T05:04:01;134.00;;;38.03;;
14714;SDS011;7448;52.698;5.186;2022-11-15T05:06:50;117.05;;;36.47;;
14714;SDS011;7448;52.698;5.186;2022-11-15T05:09:18;139.13;;;36.22;;
14714;SDS011;7448;52.698;5.186;2022-11-15T05:11:44;128.02;;;37.83;;
14714;SDS011;7448;52.698;5.186;2022-11-15T05:14:12;147.35;;;36.78;;
14714;SDS011;7448;52.698;5.186;2022-11-15T05:16:38;140.50;;;40.00;;
14714;SDS011;7448;52.698;5.186;2022-11-15T05:19:05;111.47;;;34.45;;
14714;SDS011;7448;52.698;5.186;2022-11-15T05:21:31;125.70;;;36.38;;
14714;SDS011;7448;52.698;5.186;2022-11-15T05:23:58;131.60;;;36.80;;
14714;SDS011;7448;52.698;5.186;2022-11-15T05:26:24;126.43;;;36.53;;
14714;SDS011;7448;52.698;5.186;2022-11-15T05:28:55;123.53;;;37.63;;
14714;SDS011;7448;52.698;5.186;2022-11-15T05:31:21;116.80;;;36.50;;
14714;SDS011;7448;52.698;5.186;2022-11-15T05:33:49;118.78;;;36.92;;
14714;SDS011;7448;52.698;5.186;2022-11-15T05:36:18;118.50;;;36.17;;
14714;SDS011;7448;52.698;5.186;2022-11-15T05:38:46;113.75;;;38.03;;
14714;SDS011;7448;52.698;5.186;2022-11-15T05:41:14;125.43;;;35.13;;
14714;SDS011;7448;52.698;5.186;2022-11-15T05:43:41;114.00;;;37.35;;
14714;SDS011;7448;52.698;5.186;2022-11-15T05:46:08;119.03;;;34.67;;
14714;SDS011;7448;52.698;5.186;2022-11-15T05:48:35;111.78;;;36.00;;
14714;SDS011;7448;52.698;5.186;2022-11-15T05:51:02;114.90;;;35.85;;
14714;SDS011;7448;52.698;5.186;2022-11-15T05:53:30;103.32;;;34.30;;
14714;SDS011;7448;52.698;5.186;2022-11-15T05:55:57;102.20;;;33.28;;
14714;SDS011;7448;52.698;5.186;2022-11-15T05:58:23;109.10;;;37.08;;
14714;SDS011;7448;52.698;5.186;2022-11-15T06:00:50;104.50;;;34.30;;
14714;SDS011;7448;52.698;5.186;2022-11-15T06:03:16;99.32;;;35.78;;
14714;SDS011;7448;52.698;5.186;2022-11-15T06:05:43;104.90;;;34.25;;
14714;SDS011;7448;52.698;5.186;2022-11-15T06:08:09;102.57;;;33.38;;
14714;SDS011;7448;52.698;5.186;2022-11-15T06:10:36;102.35;;;34.63;;
14714;SDS011;7448;52.698;5.186;2022-11-15T06:13:03;98.10;;;34.08;;
14714;SDS011;7448;52.698;5.186;2022-11-15T06:15:31;85.30;;;31.77;;
14714;SDS011;7448;52.698;5.186;2022-11-15T06:17:57;87.85;;;31.25;;
14714;SDS011;7448;52.698;5.186;2022-11-15T06:20:25;90.00;;;33.08;;
14714;SDS011;7448;52.698;5.186;2022-11-15T06:22:55;92.30;;;32.00;;
14714;SDS011;7448;52.698;5.186;2022-11-15T06:25:22;79.05;;;30.30;;
14714;SDS011;7448;52.698;5.186;2022-11-15T06:27:52;98.15;;;32.13;;
14714;SDS011;7448;52.698;5.186;2022-11-15T06:30:19;84.75;;;30.70;;
14714;SDS011;7448;52.698;5.186;2022-11-15T06:32:45;82.80;;;31.23;;
14714;SDS011;7448;52.698;5.186;2022-11-15T06:35:12;77.30;;;30.25;;
14714;SDS011;7448;52.698;5.186;2022-11-15T06:37:39;83.40;;;29.63;;
14714;SDS011;7448;52.698;5.186;2022-11-15T06:40:06;88.30;;;32.40;;
14714;SDS011;7448;52.698;5.186;2022-11-15T06:42:32;82.45;;;31.15;;
14714;SDS011;7448;52.698;5.186;2022-11-15T06:44:59;76.18;;;28.65;;
14714;SDS011;7448;52.698;5.186;2022-11-15T06:47:25;81.97;;;31.48;;
14714;SDS011;7448;52.698;5.186;2022-11-15T06:49:52;84.20;;;31.52;;
14714;SDS011;7448;52.698;5.186;2022-11-15T06:52:18;74.53;;;30.70;;
14714;SDS011;7448;52.698;5.186;2022-11-15T06:54:45;76.28;;;30.13;;
14714;SDS011;7448;52.698;5.186;2022-11-15T06:57:11;76.95;;;29.15;;
14714;SDS011;7448;52.698;5.186;2022-11-15T06:59:38;82.85;;;29.55;;
14714;SDS011;7448;52.698;5.186;2022-11-15T07:02:04;75.00;;;29.25;;
14714;SDS011;7448;52.698;5.186;2022-11-15T07:04:31;86.03;;;30.35;;
14714;SDS011;7448;52.698;5.186;2022-11-15T07:06:57;83.20;;;29.15;;
14714;SDS011;7448;52.698;5.186;2022-11-15T07:09:24;75.20;;;29.13;;
14714;SDS011;7448;52.698;5.186;2022-11-15T07:11:51;82.68;;;29.38;;
14714;SDS011;7448;52.698;5.186;2022-11-15T07:14:17;74.88;;;28.55;;
14714;SDS011;7448;52.698;5.186;2022-11-15T07:16:44;76.30;;;28.25;;
14714;SDS011;7448;52.698;5.186;2022-11-15T07:19:10;76.82;;;31.55;;
14714;SDS011;7448;52.698;5.186;2022-11-15T07:21:37;81.53;;;28.05;;
14714;SDS011;7448;52.698;5.186;2022-11-15T07:24:03;68.13;;;28.90;;
14714;SDS011;7448;52.698;5.186;2022-11-15T07:26:30;78.20;;;30.05;;
14714;SDS011;7448;52.698;5.186;2022-11-15T07:28:56;74.43;;;30.27;;
14714;SDS011;7448;52.698;5.186;2022-11-15T07:31:23;71.95;;;28.55;;
14714;SDS011;7448;52.698;5.186;2022-11-15T07:33:50;69.13;;;27.77;;
14714;SDS011;7448;52.698;5.186;2022-11-15T07:36:17;74.88;;;28.48;;
14714;SDS011;7448;52.698;5.186;2022-11-15T07:38:43;92.50;;;30.00;;
14714;SDS011;7448;52.698;5.186;2022-11-15T07:41:10;76.28;;;28.15;;
14714;SDS011;7448;52.698;5.186;2022-11-15T07:43:36;79.07;;;29.17;;
14714;SDS011;7448;52.698;5.186;2022-11-15T07:46:06;72.28;;;28.58;;
14714;SDS011;7448;52.698;5.186;2022-11-15T07:48:35;72.38;;;28.23;;
14714;SDS011;7448;52.698;5.186;2022-11-15T07:51:01;74.40;;;28.40;;
14714;SDS011;7448;52.698;5.186;2022-11-15T07:53:28;71.25;;;26.58;;
14714;SDS011;7448;52.698;5.186;2022-11-15T07:55:54;76.75;;;27.35;;
14714;SDS011;7448;52.698;5.186;2022-11-15T07:58:21;66.38;;;27.80;;
14714;SDS011;7448;52.698;5.186;2022-11-15T08:00:47;62.72;;;26.75;;
14714;SDS011;7448;52.698;5.186;2022-11-15T08:03:15;73.32;;;28.35;;
14714;SDS011;7448;52.698;5.186;2022-11-15T08:05:42;69.70;;;26.98;;
14714;SDS011;7448;52.698;5.186;2022-11-15T08:08:09;69.15;;;26.52;;
14714;SDS011;7448;52.698;5.186;2022-11-15T08:10:36;62.05;;;25.05;;
14714;SDS011;7448;52.698;5.186;2022-11-15T08:13:04;65.75;;;26.65;;
14714;SDS011;7448;52.698;5.186;2022-11-15T08:15:31;58.58;;;24.95;;
14714;SDS011;7448;52.698;5.186;2022-11-15T08:17:58;59.80;;;25.95;;
14714;SDS011;7448;52.698;5.186;2022-11-15T08:20:25;69.32;;;24.55;;
14714;SDS011;7448;52.698;5.186;2022-11-15T08:22:58;59.45;;;24.58;;
14714;SDS011;7448;52.698;5.186;2022-11-15T08:25:25;62.55;;;26.30;;
14714;SDS011;7448;52.698;5.186;2022-11-15T08:27:52;68.50;;;24.75;;
14714;SDS011;7448;52.698;5.186;2022-11-15T08:30:20;60.47;;;24.05;;
14714;SDS011;7448;52.698;5.186;2022-11-15T08:32:47;69.72;;;25.27;;
14714;SDS011;7448;52.698;5.186;2022-11-15T08:35:13;59.50;;;23.80;;
14714;SDS011;7448;52.698;5.186;2022-11-15T08:37:39;63.70;;;24.67;;
14714;SDS011;7448;52.698;5.186;2022-11-15T08:40:06;61.95;;;23.17;;
14714;SDS011;7448;52.698;5.186;2022-11-15T08:42:33;60.92;;;24.17;;
14714;SDS011;7448;52.698;5.186;2022-11-15T08:45:03;57.15;;;23.25;;
14714;SDS011;7448;52.698;5.186;2022-11-15T08:47:29;55.42;;;22.95;;
14714;SDS011;7448;52.698;5.186;2022-11-15T08:49:56;56.35;;;22.80;;
14714;SDS011;7448;52.698;5.186;2022-11-15T08:52:22;52.90;;;23.15;;
14714;SDS011;7448;52.698;5.186;2022-11-15T08:54:49;57.75;;;23.08;;
14714;SDS011;7448;52.698;5.186;2022-11-15T08:57:16;57.10;;;22.58;;
14714;SDS011;7448;52.698;5.186;2022-11-15T08:59:42;61.08;;;24.30;;
14714;SDS011;7448;52.698;5.186;2022-11-15T09:02:12;53.15;;;22.15;;
14714;SDS011;7448;52.698;5.186;2022-11-15T09:04:43;50.83;;;21.85;;
14714;SDS011;7448;52.698;5.186;2022-11-15T09:07:10;44.80;;;20.08;;
14714;SDS011;7448;52.698;5.186;2022-11-15T09:09:37;44.67;;;19.80;;
14714;SDS011;7448;52.698;5.186;2022-11-15T09:12:04;48.85;;;19.90;;
14714;SDS011;7448;52.698;5.186;2022-11-15T09:14:31;44.65;;;20.08;;
14714;SDS011;7448;52.698;5.186;2022-11-15T09:16:58;47.92;;;19.95;;
14714;SDS011;7448;52.698;5.186;2022-11-15T09:19:25;47.53;;;20.50;;
14714;SDS011;7448;52.698;5.186;2022-11-15T09:21:51;49.42;;;20.10;;
14714;SDS011;7448;52.698;5.186;2022-11-15T09:24:18;43.60;;;19.02;;
14714;SDS011;7448;52.698;5.186;2022-11-15T09:26:44;44.13;;;18.63;;
14714;SDS011;7448;52.698;5.186;2022-11-15T09:29:11;40.80;;;19.25;;
14714;SDS011;7448;52.698;5.186;2022-11-15T09:31:38;35.42;;;18.13;;
14714;SDS011;7448;52.698;5.186;2022-11-15T09:34:05;35.47;;;17.13;;
14714;SDS011;7448;52.698;5.186;2022-11-15T09:36:31;43.45;;;17.83;;
14714;SDS011;7448;52.698;5.186;2022-11-15T09:38:58;32.92;;;16.02;;
14714;SDS011;7448;52.698;5.186;2022-11-15T09:41:29;33.17;;;15.80;;
14714;SDS011;7448;52.698;5.186;2022-11-15T09:46:59;34.95;;;15.20;;
14714;SDS011;7448;52.698;5.186;2022-11-15T09:49:29;33.30;;;14.32;;
14714;SDS011;7448;52.698;5.186;2022-11-15T09:51:56;29.17;;;14.13;;
14714;SDS011;7448;52.698;5.186;2022-11-15T09:54:33;27.48;;;14.57;;
14714;SDS011;7448;52.698;5.186;2022-11-15T10:04:37;30.33;;;13.57;;
14714;SDS011;7448;52.698;5.186;2022-11-15T10:07:09;27.20;;;12.23;;
14714;SDS011;7448;52.698;5.186;2022-11-15T10:09:50;28.20;;;11.75;;
14714;SDS011;7448;52.698;5.186;2022-11-15T10:12:18;21.48;;;10.45;;
14714;SDS011;7448;52.698;5.186;2022-11-15T10:14:45;28.67;;;11.77;;
14714;SDS011;7448;52.698;5.186;2022-11-15T10:25:01;19.27;;;9.80;;
14714;SDS011;7448;52.698;5.186;2022-11-15T10:27:37;18.95;;;9.50;;
14714;SDS011;7448;52.698;5.186;2022-11-15T10:30:10;19.95;;;9.30;;
14714;SDS011;7448;52.698;5.186;2022-11-15T10:32:37;17.65;;;7.93;;
14714;SDS011;7448;52.698;5.186;2022-11-15T10:35:25;17.35;;;8.60;;
14714;SDS011;7448;52.698;5.186;2022-11-15T10:37:52;22.27;;;8.70;;
14714;SDS011;7448;52.698;5.186;2022-11-15T10:40:20;20.63;;;8.35;;
14714;SDS011;7448;52.698;5.186;2022-11-15T10:42:47;16.95;;;8.35;;
14714;SDS011;7448;52.698;5.186;2022-11-15T10:45:24;17.60;;;8.35;;
14714;SDS011;7448;52.698;5.186;2022-11-15T10:47:51;21.42;;;8.65;;
14714;SDS011;7448;52.698;5.186;2022-11-15T10:50:28;15.95;;;7.45;;
14714;SDS011;7448;52.698;5.186;2022-11-15T10:52:56;13.32;;;7.28;;
14714;SDS011;7448;52.698;5.186;2022-11-15T10:55:24;16.42;;;7.50;;
14714;SDS011;7448;52.698;5.186;2022-11-15T10:57:56;10.95;;;6.05;;
14714;SDS011;7448;52.698;5.186;2022-11-15T11:00:28;14.45;;;6.80;;
14714;SDS011;7448;52.698;5.186;2022-11-15T11:05:28;12.85;;;6.45;;
14714;SDS011;7448;52.698;5.186;2022-11-15T11:08:01;12.77;;;6.25;;
14714;SDS011;7448;52.698;5.186;2022-11-15T11:10:28;11.50;;;6.15;;
14714;SDS011;7448;52.698;5.186;2022-11-15T11:12:54;12.63;;;5.72;;
14714;SDS011;7448;52.698;5.186;2022-11-15T11:15:22;12.75;;;5.32;;
14714;SDS011;7448;52.698;5.186;2022-11-15T11:23:00;8.60;;;4.45;;
14714;SDS011;7448;52.698;5.186;2022-11-15T11:35:46;11.32;;;4.22;;
14714;SDS011;7448;52.698;5.186;2022-11-15T11:38:19;8.27;;;3.70;;
14714;SDS011;7448;52.698;5.186;2022-11-15T11:43:34;9.73;;;4.13;;
14714;SDS011;7448;52.698;5.186;2022-11-15T11:46:24;10.38;;;3.72;;
14714;SDS011;7448;52.698;5.186;2022-11-15T11:49:03;6.78;;;3.42;;
14714;SDS011;7448;52.698;5.186;2022-11-15T11:51:41;6.47;;;3.75;;
14714;SDS011;7448;52.698;5.186;2022-11-15T11:54:18;12.75;;;3.83;;
14714;SDS011;7448;52.698;5.186;2022-11-15T11:56:45;8.98;;;3.80;;
14714;SDS011;7448;52.698;5.186;2022-11-15T11:59:16;8.55;;;4.18;;
14714;SDS011;7448;52.698;5.186;2022-11-15T12:01:44;12.45;;;4.57;;
14714;SDS011;7448;52.698;5.186;2022-11-15T12:12:15;10.27;;;3.78;;
14714;SDS011;7448;52.698;5.186;2022-11-15T12:14:48;8.05;;;4.07;;
14714;SDS011;7448;52.698;5.186;2022-11-15T12:17:17;13.02;;;4.18;;
14714;SDS011;7448;52.698;5.186;2022-11-15T12:19:45;9.93;;;4.35;;
14714;SDS011;7448;52.698;5.186;2022-11-15T12:22:22;8.27;;;3.85;;
14714;SDS011;7448;52.698;5.186;2022-11-15T12:25:03;7.50;;;3.97;;
14714;SDS011;7448;52.698;5.186;2022-11-15T12:30:17;8.32;;;3.67;;
14714;SDS011;7448;52.698;5.186;2022-11-15T12:32:59;7.30;;;3.50;;
14714;SDS011;7448;52.698;5.186;2022-11-15T12:35:37;6.45;;;4.03;;
14714;SDS011;7448;52.698;5.186;2022-11-15T12:38:08;5.60;;;3.55;;
14714;SDS011;7448;52.698;5.186;2022-11-15T12:40:39;7.82;;;3.15;;
14714;SDS011;7448;52.698;5.186;2022-11-15T12:43:38;6.90;;;2.97;;
14714;SDS011;7448;52.698;5.186;2022-11-15T12:46:05;7.03;;;2.60;;
14714;SDS011;7448;52.698;5.186;2022-11-15T12:51:03;9.50;;;3.38;;
14714;SDS011;7448;52.698;5.186;2022-11-15T12:53:31;5.72;;;2.75;;
14714;SDS011;7448;52.698;5.186;2022-11-15T12:58:46;5.45;;;2.90;;
14714;SDS011;7448;52.698;5.186;2022-11-15T13:07:01;8.30;;;3.40;;
14714;SDS011;7448;52.698;5.186;2022-11-15T13:11:58;7.82;;;3.08;;
14714;SDS011;7448;52.698;5.186;2022-11-15T13:14:40;4.57;;;2.92;;
14714;SDS011;7448;52.698;5.186;2022-11-15T13:19:46;10.63;;;3.28;;
14714;SDS011;7448;52.698;5.186;2022-11-15T13:22:13;9.82;;;3.47;;
14714;SDS011;7448;52.698;5.186;2022-11-15T13:25:00;7.07;;;3.05;;
14714;SDS011;7448;52.698;5.186;2022-11-15T13:27:27;8.07;;;2.72;;
14714;SDS011;7448;52.698;5.186;2022-11-15T13:29:54;6.40;;;3.22;;
14714;SDS011;7448;52.698;5.186;2022-11-15T13:32:21;4.20;;;2.78;;
14714;SDS011;7448;52.698;5.186;2022-11-15T13:34:48;7.47;;;2.95;;
14714;SDS011;7448;52.698;5.186;2022-11-15T13:39:48;6.95;;;3.10;;
14714;SDS011;7448;52.698;5.186;2022-11-15T13:42:19;8.25;;;3.00;;
14714;SDS011;7448;52.698;5.186;2022-11-15T13:44:56;7.22;;;3.40;;
14714;SDS011;7448;52.698;5.186;2022-11-15T13:47:24;4.57;;;2.58;;
14714;SDS011;7448;52.698;5.186;2022-11-15T13:49:52;8.70;;;2.40;;
14714;SDS011;7448;52.698;5.186;2022-11-15T13:52:19;9.25;;;3.00;;
14714;SDS011;7448;52.698;5.186;2022-11-15T13:57:26;6.20;;;2.60;;
14714;SDS011;7448;52.698;5.186;2022-11-15T13:59:55;7.80;;;2.47;;
14714;SDS011;7448;52.698;5.186;2022-11-15T14:02:32;5.43;;;2.50;;
14714;SDS011;7448;52.698;5.186;2022-11-15T14:05:16;7.35;;;2.55;;
14714;SDS011;7448;52.698;5.186;2022-11-15T14:07:52;8.18;;;2.63;;
14714;SDS011;7448;52.698;5.186;2022-11-15T14:12:51;4.55;;;2.35;;
14714;SDS011;7448;52.698;5.186;2022-11-15T14:15:28;4.10;;;2.33;;
14714;SDS011;7448;52.698;5.186;2022-11-15T14:17:56;11.05;;;2.55;;
14714;SDS011;7448;52.698;5.186;2022-11-15T14:22:54;7.07;;;2.25;;
14714;SDS011;7448;52.698;5.186;2022-11-15T14:25:27;4.18;;;2.28;;
14714;SDS011;7448;52.698;5.186;2022-11-15T14:28:11;6.43;;;2.35;;
14714;SDS011;7448;52.698;5.186;2022-11-15T14:30:38;9.73;;;2.17;;
14714;SDS011;7448;52.698;5.186;2022-11-15T14:33:17;6.82;;;1.73;;
14714;SDS011;7448;52.698;5.186;2022-11-15T14:35:44;8.40;;;1.90;;
14714;SDS011;7448;52.698;5.186;2022-11-15T14:38:10;3.45;;;2.10;;
14714;SDS011;7448;52.698;5.186;2022-11-15T14:40:37;3.38;;;1.50;;
14714;SDS011;7448;52.698;5.186;2022-11-15T14:43:03;6.20;;;2.05;;
14714;SDS011;7448;52.698;5.186;2022-11-15T14:45:30;10.20;;;2.30;;
14714;SDS011;7448;52.698;5.186;2022-11-15T14:47:57;7.15;;;2.00;;
14714;SDS011;7448;52.698;5.186;2022-11-15T14:50:24;4.85;;;1.90;;
14714;SDS011;7448;52.698;5.186;2022-11-15T14:52:50;4.18;;;1.88;;
14714;SDS011;7448;52.698;5.186;2022-11-15T14:55:24;5.18;;;1.77;;
14714;SDS011;7448;52.698;5.186;2022-11-15T14:57:52;6.50;;;1.83;;
14714;SDS011;7448;52.698;5.186;2022-11-15T15:00:18;3.35;;;1.50;;
14714;SDS011;7448;52.698;5.186;2022-11-15T15:02:45;5.65;;;1.70;;
14714;SDS011;7448;52.698;5.186;2022-11-15T15:05:13;3.22;;;1.60;;
14714;SDS011;7448;52.698;5.186;2022-11-15T15:07:40;6.90;;;2.30;;
14714;SDS011;7448;52.698;5.186;2022-11-15T15:10:06;9.10;;;1.67;;
14714;SDS011;7448;52.698;5.186;2022-11-15T15:12:33;6.55;;;1.70;;
14714;SDS011;7448;52.698;5.186;2022-11-15T15:14:59;12.40;;;1.52;;
14714;SDS011;7448;52.698;5.186;2022-11-15T15:17:25;4.22;;;1.60;;
14714;SDS011;7448;52.698;5.186;2022-11-15T15:19:52;6.07;;;1.60;;
14714;SDS011;7448;52.698;5.186;2022-11-15T15:22:19;4.93;;;1.60;;
14714;SDS011;7448;52.698;5.186;2022-11-15T15:24:48;5.43;;;1.30;;
14714;SDS011;7448;52.698;5.186;2022-11-15T15:27:14;3.95;;;1.75;;
14714;SDS011;7448;52.698;5.186;2022-11-15T15:29:41;4.50;;;1.63;;
14714;SDS011;7448;52.698;5.186;2022-11-15T15:32:08;6.10;;;1.30;;
14714;SDS011;7448;52.698;5.186;2022-11-15T15:34:34;4.72;;;1.65;;
14714;SDS011;7448;52.698;5.186;2022-11-15T15:39:33;10.63;;;1.52;;
14714;SDS011;7448;52.698;5.186;2022-11-15T15:42:00;5.78;;;1.58;;
14714;SDS011;7448;52.698;5.186;2022-11-15T15:44:26;3.72;;;1.00;;
14714;SDS011;7448;52.698;5.186;2022-11-15T15:46:52;6.00;;;1.33;;
14714;SDS011;7448;52.698;5.186;2022-11-15T15:49:19;4.85;;;1.80;;
14714;SDS011;7448;52.698;5.186;2022-11-15T15:51:45;5.53;;;1.40;;
14714;SDS011;7448;52.698;5.186;2022-11-15T15:54:12;10.77;;;2.00;;
14714;SDS011;7448;52.698;5.186;2022-11-15T15:56:38;2.90;;;1.45;;
14714;SDS011;7448;52.698;5.186;2022-11-15T15:59:05;2.72;;;1.13;;
14714;SDS011;7448;52.698;5.186;2022-11-15T16:01:31;3.03;;;1.55;;
14714;SDS011;7448;52.698;5.186;2022-11-15T16:03:57;5.07;;;1.48;;
14714;SDS011;7448;52.698;5.186;2022-11-15T16:08:59;4.88;;;1.77;;
14714;SDS011;7448;52.698;5.186;2022-11-15T16:11:26;3.90;;;1.52;;
14714;SDS011;7448;52.698;5.186;2022-11-15T16:13:53;5.18;;;1.65;;
14714;SDS011;7448;52.698;5.186;2022-11-15T16:16:20;5.78;;;1.50;;
14714;SDS011;7448;52.698;5.186;2022-11-15T16:18:47;7.65;;;2.22;;
14714;SDS011;7448;52.698;5.186;2022-11-15T16:21:14;3.45;;;1.48;;
14714;SDS011;7448;52.698;5.186;2022-11-15T16:23:40;3.97;;;1.92;;
14714;SDS011;7448;52.698;5.186;2022-11-15T16:26:14;5.93;;;2.05;;
14714;SDS011;7448;52.698;5.186;2022-11-15T16:28:41;4.70;;;1.83;;
14714;SDS011;7448;52.698;5.186;2022-11-15T16:31:08;7.32;;;1.75;;
14714;SDS011;7448;52.698;5.186;2022-11-15T16:33:35;3.80;;;1.90;;